createdAt,value
2019-03-31T00:02:21.882Z,12.93
2019-03-31T00:04:51.203Z,13.43
2019-03-31T00:07:20.524Z,13.23
2019-03-31T00:09:51.567Z,12.17
2019-03-31T00:12:21.066Z,13.10
2019-03-31T00:14:50.393Z,11.87
2019-03-31T00:17:19.605Z,12.80
2019-03-31T00:19:49.114Z,12.80
2019-03-31T00:22:25.363Z,11.80
2019-03-31T00:24:55.172Z,11.87
2019-03-31T00:27:24.475Z,11.40
2019-03-31T00:29:53.832Z,12.80
2019-03-31T00:32:23.049Z,10.80
2019-03-31T00:34:52.397Z,11.70
2019-03-31T00:37:22.202Z,11.33
2019-03-31T00:39:51.530Z,11.60
2019-03-31T00:42:20.730Z,9.80
2019-03-31T00:44:50.049Z,11.30
2019-03-31T00:47:21.064Z,10.37
2019-03-31T00:49:50.439Z,10.87
2019-03-31T00:52:26.842Z,10.17
2019-03-31T00:54:56.030Z,10.30
2019-03-31T00:57:25.264Z,12.30
2019-03-31T00:59:54.621Z,10.43
2019-03-31T01:02:26.450Z,9.73
2019-03-31T01:04:55.858Z,9.40
2019-03-31T01:07:26.986Z,10.67
2019-03-31T01:09:57.262Z,10.27
2019-03-31T01:12:27.465Z,9.57
2019-03-31T01:14:58.081Z,10.37
2019-03-31T01:17:27.694Z,10.43
2019-03-31T01:19:58.909Z,10.40
2019-03-31T01:22:29.321Z,11.00
2019-03-31T01:24:58.734Z,10.60
2019-03-31T01:27:29.764Z,10.00
2019-03-31T01:29:59.173Z,10.30
2019-03-31T01:32:28.890Z,11.37
2019-03-31T01:34:58.529Z,8.97
2019-03-31T01:37:28.139Z,11.17
2019-03-31T01:39:58.269Z,10.43
2019-03-31T01:42:27.484Z,10.57
2019-03-31T01:44:56.797Z,10.70
2019-03-31T01:47:26.119Z,10.90
2019-03-31T01:49:55.328Z,9.20
2019-03-31T01:52:28.701Z,10.03
2019-03-31T01:54:58.994Z,11.40
2019-03-31T01:57:28.340Z,11.50
2019-03-31T01:59:57.791Z,9.70
2019-03-31T02:02:29.222Z,10.30
2019-03-31T02:04:58.541Z,9.77
2019-03-31T02:07:29.547Z,10.50
2019-03-31T02:09:58.780Z,9.90
2019-03-31T02:12:28.116Z,10.77
2019-03-31T02:14:57.303Z,9.17
2019-03-31T02:17:27.430Z,8.60
2019-03-31T02:19:56.728Z,9.33
2019-03-31T02:22:31.096Z,9.57
2019-03-31T02:25:00.445Z,9.53
2019-03-31T02:27:29.730Z,10.17
2019-03-31T02:29:59.061Z,10.00
2019-03-31T02:32:28.351Z,9.57
2019-03-31T02:34:57.572Z,8.53
2019-03-31T02:37:27.712Z,10.13
2019-03-31T02:39:57.186Z,10.70
2019-03-31T02:42:26.596Z,10.23
2019-03-31T02:44:55.911Z,9.83
2019-03-31T02:47:26.421Z,10.67
2019-03-31T02:49:55.751Z,9.87
2019-03-31T02:52:30.288Z,9.90
2019-03-31T02:54:59.514Z,9.23
2019-03-31T02:57:29.553Z,9.67
2019-03-31T02:59:59.582Z,9.80
2019-03-31T03:02:41.658Z,9.43
2019-03-31T03:05:17.679Z,9.93
2019-03-31T03:07:39.195Z,9.57
2019-03-31T03:10:08.636Z,10.87
2019-03-31T03:12:41.727Z,10.13
2019-03-31T03:15:13.185Z,9.80
2019-03-31T03:17:42.414Z,10.23
2019-03-31T03:20:12.193Z,10.33
2019-03-31T03:22:41.508Z,10.50
2019-03-31T03:25:10.759Z,10.80
2019-03-31T03:27:40.058Z,10.03
2019-03-31T03:30:09.381Z,10.67
2019-03-31T03:32:38.734Z,10.10
2019-03-31T03:35:08.795Z,11.13
2019-03-31T03:37:38.081Z,10.90
2019-03-31T03:40:07.445Z,11.30
2019-03-31T03:42:36.748Z,10.57
2019-03-31T03:45:07.097Z,8.90
2019-03-31T03:47:36.310Z,10.20
2019-03-31T03:50:05.875Z,11.30
2019-03-31T03:52:35.545Z,11.20
2019-03-31T03:55:05.562Z,8.40
2019-03-31T03:57:34.915Z,10.47
2019-03-31T04:00:05.094Z,10.33
2019-03-31T04:02:36.124Z,11.00
2019-03-31T04:05:06.456Z,9.73
2019-03-31T04:07:36.011Z,10.00
2019-03-31T04:10:29.540Z,9.23
2019-03-31T04:12:58.963Z,10.40
2019-03-31T04:15:28.162Z,10.00
2019-03-31T04:17:57.364Z,10.07
2019-03-31T04:20:26.706Z,10.27
2019-03-31T04:22:57.717Z,9.93
2019-03-31T04:25:26.942Z,9.23
2019-03-31T04:27:56.635Z,10.47
2019-03-31T04:30:26.005Z,10.10
2019-03-31T04:32:55.216Z,9.83
2019-03-31T04:35:24.545Z,10.30
2019-03-31T04:37:53.748Z,9.27
2019-03-31T04:40:23.087Z,10.43
2019-03-31T04:42:52.386Z,9.73
2019-03-31T04:45:21.693Z,9.80
2019-03-31T04:47:50.913Z,8.80
2019-03-31T04:50:20.224Z,10.33
2019-03-31T04:52:49.550Z,9.77
2019-03-31T04:55:18.777Z,11.10
2019-03-31T04:57:47.996Z,10.63
2019-03-31T05:00:17.233Z,9.00
2019-03-31T05:02:46.466Z,10.23
2019-03-31T05:05:15.760Z,10.10
2019-03-31T05:07:45.079Z,9.60
2019-03-31T05:10:14.434Z,10.23
2019-03-31T05:12:43.665Z,10.77
2019-03-31T05:15:12.901Z,10.18
2019-03-31T05:17:43.911Z,11.17
2019-03-31T05:20:14.871Z,10.50
2019-03-31T05:22:45.891Z,10.70
2019-03-31T05:25:15.456Z,11.30
2019-03-31T05:27:44.755Z,11.50
2019-03-31T05:30:14.118Z,9.98
2019-03-31T05:32:43.422Z,10.20
2019-03-31T05:35:12.720Z,9.45
2019-03-31T05:37:50.732Z,10.15
2019-03-31T05:40:13.410Z,9.47
2019-03-31T05:42:42.752Z,10.10
2019-03-31T05:45:12.358Z,9.83
2019-03-31T05:47:41.886Z,11.07
2019-03-31T05:50:11.761Z,10.20
2019-03-31T05:52:42.995Z,8.85
2019-03-31T05:55:12.605Z,11.12
2019-03-31T05:57:41.946Z,10.70
2019-03-31T06:00:16.146Z,11.23
2019-03-31T06:02:45.473Z,12.23
2019-03-31T06:05:15.060Z,11.53
2019-03-31T06:07:44.343Z,10.43
2019-03-31T06:10:14.090Z,11.23
2019-03-31T06:12:43.992Z,9.77
2019-03-31T06:15:13.446Z,11.87
2019-03-31T06:17:43.080Z,12.20
2019-03-31T06:20:13.136Z,12.53
2019-03-31T06:22:42.341Z,12.50
2019-03-31T06:25:11.704Z,11.73
2019-03-31T06:27:40.935Z,14.43
2019-03-31T06:30:12.271Z,14.20
2019-03-31T06:32:41.576Z,12.13
2019-03-31T06:35:10.895Z,12.13
2019-03-31T06:37:40.098Z,12.47
2019-03-31T06:40:09.491Z,11.97
2019-03-31T06:42:38.906Z,11.10
2019-03-31T06:45:08.662Z,10.37
2019-03-31T06:47:37.955Z,11.70
2019-03-31T06:50:08.397Z,10.20
2019-03-31T06:52:40.437Z,12.37
2019-03-31T06:55:09.753Z,10.27
2019-03-31T06:57:38.972Z,10.00
2019-03-31T07:00:08.327Z,9.13
2019-03-31T07:02:37.655Z,9.60
2019-03-31T07:05:08.674Z,10.13
2019-03-31T07:07:38.105Z,11.43
2019-03-31T07:10:08.740Z,8.53
2019-03-31T07:12:40.012Z,7.90
2019-03-31T07:15:09.864Z,8.40
2019-03-31T07:17:39.528Z,9.60
2019-03-31T07:20:10.417Z,9.20
2019-03-31T07:22:40.721Z,9.20
2019-03-31T07:25:10.985Z,7.57
2019-03-31T07:27:40.201Z,11.30
2019-03-31T07:30:11.560Z,12.07
2019-03-31T07:32:40.978Z,9.03
2019-03-31T07:35:18.435Z,12.40
2019-03-31T07:37:47.510Z,11.50
2019-03-31T07:40:14.787Z,14.50
2019-03-31T07:42:44.391Z,12.27
2019-03-31T07:45:15.365Z,13.47
2019-03-31T07:47:45.071Z,12.50
2019-03-31T07:50:15.763Z,12.97
2019-03-31T07:52:45.122Z,12.30
2019-03-31T07:55:16.281Z,11.50
2019-03-31T07:57:46.045Z,13.77
2019-03-31T08:00:18.224Z,12.73
2019-03-31T08:02:47.494Z,13.77
2019-03-31T08:05:32.099Z,12.07
2019-03-31T08:07:49.254Z,12.70
2019-03-31T08:10:20.324Z,13.73
2019-03-31T08:12:49.639Z,13.30
2019-03-31T08:15:20.985Z,13.07
2019-03-31T08:17:50.423Z,13.03
2019-03-31T08:20:22.096Z,13.23
2019-03-31T08:22:51.869Z,11.60
2019-03-31T08:25:22.900Z,12.63
2019-03-31T08:27:52.553Z,12.30
2019-03-31T08:30:23.017Z,12.37
2019-03-31T08:32:52.475Z,13.90
2019-03-31T08:35:22.186Z,12.70
2019-03-31T08:37:51.573Z,14.70
2019-03-31T08:40:21.375Z,14.93
2019-03-31T08:42:51.023Z,15.47
2019-03-31T08:45:20.377Z,14.10
2019-03-31T08:47:49.919Z,13.17
2019-03-31T08:50:20.960Z,11.87
2019-03-31T08:52:50.555Z,14.23
2019-03-31T08:55:20.110Z,14.43
2019-03-31T08:57:51.521Z,14.57
2019-03-31T09:00:31.707Z,14.10
2019-03-31T09:03:01.058Z,13.23
2019-03-31T09:05:32.179Z,13.30
2019-03-31T09:08:04.178Z,13.60
2019-03-31T09:10:34.384Z,14.60
2019-03-31T09:13:04.046Z,13.07
2019-03-31T09:15:33.381Z,15.10
2019-03-31T09:18:02.702Z,13.63
2019-03-31T09:20:32.341Z,15.03
2019-03-31T09:23:01.590Z,13.23
2019-03-31T09:25:31.097Z,13.93
2019-03-31T09:28:02.606Z,15.90
2019-03-31T09:30:33.039Z,14.13
2019-03-31T09:33:02.348Z,13.33
2019-03-31T09:35:32.243Z,13.70
2019-03-31T09:38:03.140Z,14.23
2019-03-31T09:40:32.621Z,14.30
2019-03-31T09:43:02.195Z,13.37
2019-03-31T09:45:31.485Z,14.93
2019-03-31T09:48:01.261Z,14.90
2019-03-31T09:50:30.929Z,14.33
2019-03-31T09:53:00.417Z,14.20
2019-03-31T09:55:29.631Z,12.80
2019-03-31T09:57:59.251Z,14.07
2019-03-31T10:00:49.211Z,14.07
2019-03-31T10:03:19.390Z,13.47
2019-03-31T10:05:49.125Z,13.47
2019-03-31T10:08:21.684Z,13.50
2019-03-31T10:10:50.096Z,12.87
2019-03-31T10:13:19.332Z,13.97
2019-03-31T10:15:48.939Z,13.93
2019-03-31T10:18:18.609Z,13.17
2019-03-31T10:20:48.255Z,14.40
2019-03-31T10:23:17.622Z,12.90
2019-03-31T10:25:47.162Z,13.70
2019-03-31T10:28:16.648Z,11.70
2019-03-31T10:30:46.830Z,13.33
2019-03-31T10:33:16.336Z,13.70
2019-03-31T10:35:46.069Z,13.97
2019-03-31T10:38:17.320Z,13.60
2019-03-31T10:40:46.908Z,13.37
2019-03-31T10:43:16.463Z,13.70
2019-03-31T10:45:47.472Z,13.50
2019-03-31T10:48:20.615Z,14.90
2019-03-31T10:50:50.550Z,13.13
2019-03-31T10:53:20.176Z,12.43
2019-03-31T10:55:49.683Z,13.10
2019-03-31T10:58:19.258Z,12.90
2019-03-31T11:00:49.462Z,14.50
2019-03-31T11:03:18.847Z,12.77
2019-03-31T11:05:48.422Z,12.50
2019-03-31T11:08:17.944Z,12.47
2019-03-31T11:10:48.181Z,12.77
2019-03-31T11:13:18.481Z,11.53
2019-03-31T11:15:47.992Z,11.07
2019-03-31T11:18:17.299Z,13.33
2019-03-31T11:20:46.978Z,10.73
2019-03-31T11:23:24.563Z,13.40
2019-03-31T11:25:53.774Z,12.83
2019-03-31T11:28:23.528Z,11.30
2019-03-31T11:30:54.631Z,13.07
2019-03-31T11:33:26.014Z,11.30
2019-03-31T11:35:55.346Z,11.77
2019-03-31T11:38:24.843Z,10.73
2019-03-31T11:40:55.925Z,13.77
2019-03-31T11:43:26.918Z,10.97
2019-03-31T11:45:56.335Z,11.10
2019-03-31T11:48:25.868Z,15.60
2019-03-31T11:50:55.658Z,15.33
2019-03-31T11:53:25.230Z,12.10
2019-03-31T11:55:55.847Z,29.07
2019-03-31T11:58:25.542Z,12.50
2019-03-31T12:00:57.650Z,9.90
2019-03-31T12:03:30.650Z,13.97
2019-03-31T12:05:58.848Z,12.47
2019-03-31T12:08:28.345Z,12.50
2019-03-31T12:10:58.194Z,12.90
2019-03-31T12:13:28.015Z,12.10
2019-03-31T12:15:57.714Z,12.60
2019-03-31T12:18:27.460Z,11.07
2019-03-31T12:20:57.052Z,11.97
2019-03-31T12:23:26.563Z,12.10
2019-03-31T12:25:55.768Z,12.13
2019-03-31T12:28:25.361Z,11.70
2019-03-31T12:30:54.869Z,10.87
2019-03-31T12:33:24.530Z,11.23
2019-03-31T12:35:54.023Z,11.10
2019-03-31T12:38:23.566Z,10.10
2019-03-31T12:40:52.790Z,10.40
2019-03-31T12:43:23.629Z,10.70
2019-03-31T12:45:53.124Z,11.60
2019-03-31T12:48:22.827Z,13.57
2019-03-31T12:50:52.529Z,11.13
2019-03-31T12:53:22.065Z,11.60
2019-03-31T12:55:59.959Z,11.20
2019-03-31T12:58:24.830Z,9.73
2019-03-31T13:00:54.559Z,10.43
2019-03-31T13:03:23.936Z,13.50
2019-03-31T13:05:53.470Z,15.20
2019-03-31T13:08:23.506Z,45.50
2019-03-31T13:10:53.351Z,13.53
2019-03-31T13:13:22.728Z,31.97
2019-03-31T13:15:52.421Z,15.87
2019-03-31T13:18:22.960Z,11.47
2019-03-31T13:20:52.908Z,14.97
2019-03-31T13:23:22.651Z,14.40
2019-03-31T13:25:52.391Z,15.63
2019-03-31T13:28:23.452Z,9.17
2019-03-31T13:30:53.277Z,10.10
2019-03-31T13:33:23.059Z,10.50
2019-03-31T13:35:53.379Z,9.03
2019-03-31T13:38:24.910Z,9.63
2019-03-31T13:40:54.527Z,9.13
2019-03-31T13:43:24.089Z,9.20
2019-03-31T13:45:55.395Z,9.93
2019-03-31T13:48:25.419Z,12.03
2019-03-31T13:50:55.340Z,9.97
2019-03-31T13:53:25.098Z,8.77
2019-03-31T13:55:54.335Z,9.30
2019-03-31T13:58:25.556Z,10.10
2019-03-31T14:00:57.061Z,10.10
2019-03-31T14:03:26.679Z,8.50
2019-03-31T14:05:55.861Z,9.50
2019-03-31T14:08:26.314Z,9.00
2019-03-31T14:10:55.887Z,8.90
2019-03-31T14:13:25.345Z,8.93
2019-03-31T14:15:56.470Z,8.60
2019-03-31T14:18:27.528Z,10.33
2019-03-31T14:20:57.068Z,9.60
2019-03-31T14:23:26.673Z,10.10
2019-03-31T14:25:56.489Z,10.20
2019-03-31T14:28:26.021Z,9.80
2019-03-31T14:30:58.533Z,9.37
2019-03-31T14:33:28.262Z,10.87
2019-03-31T14:35:58.044Z,10.03
2019-03-31T14:38:39.575Z,10.47
2019-03-31T14:40:59.641Z,13.63
2019-03-31T14:43:29.337Z,9.73
2019-03-31T14:45:59.079Z,9.67
2019-03-31T14:48:28.770Z,10.37
2019-03-31T14:50:58.506Z,9.70
2019-03-31T14:53:29.635Z,9.60
2019-03-31T14:55:59.179Z,8.87
2019-03-31T14:58:28.798Z,8.10
2019-03-31T15:00:58.414Z,9.50
2019-03-31T15:03:28.374Z,8.83
2019-03-31T15:05:57.831Z,10.07
2019-03-31T15:08:27.430Z,9.73
2019-03-31T15:10:57.126Z,9.30
2019-03-31T15:13:27.223Z,8.90
2019-03-31T15:15:56.658Z,8.83
2019-03-31T15:18:27.503Z,8.90
2019-03-31T15:20:57.316Z,10.90
2019-03-31T15:23:30.080Z,11.03
2019-03-31T15:25:58.666Z,10.10
2019-03-31T15:28:28.148Z,9.33
2019-03-31T15:30:57.897Z,9.50
2019-03-31T15:33:27.487Z,9.73
2019-03-31T15:35:57.052Z,8.47
2019-03-31T15:38:26.879Z,8.37
2019-03-31T15:40:57.328Z,8.73
2019-03-31T15:43:27.283Z,9.17
2019-03-31T15:45:58.533Z,8.90
2019-03-31T15:48:28.501Z,9.23
2019-03-31T15:50:58.082Z,9.53
2019-03-31T15:53:27.870Z,8.23
2019-03-31T15:55:57.240Z,9.20
2019-03-31T15:58:27.017Z,8.40
2019-03-31T16:00:56.561Z,8.30
2019-03-31T16:03:26.813Z,9.20
2019-03-31T16:05:56.392Z,9.27
2019-03-31T16:08:25.697Z,14.30
2019-03-31T16:10:54.529Z,11.73
2019-03-31T16:13:23.104Z,14.43
2019-03-31T16:15:53.328Z,10.30
2019-03-31T16:18:21.980Z,12.53
2019-03-31T16:20:51.057Z,9.70
2019-03-31T16:23:19.738Z,8.63
2019-03-31T16:25:50.363Z,8.50
2019-03-31T16:28:19.193Z,11.70
2019-03-31T16:30:48.155Z,11.20
2019-03-31T16:33:16.921Z,10.37
2019-03-31T16:35:45.547Z,8.87
2019-03-31T16:38:15.207Z,9.60
2019-03-31T16:40:43.606Z,11.77
2019-03-31T16:43:12.481Z,9.80
2019-03-31T16:45:41.627Z,9.20
2019-03-31T16:48:10.399Z,8.80
2019-03-31T16:50:39.235Z,10.17
2019-03-31T16:53:07.735Z,8.47
2019-03-31T16:55:36.555Z,9.80
2019-03-31T16:58:09.572Z,7.93
2019-03-31T17:00:41.679Z,8.93
2019-03-31T17:03:10.246Z,8.10
2019-03-31T17:05:38.906Z,6.80
2019-03-31T17:08:07.296Z,9.20
2019-03-31T17:10:35.818Z,9.23
2019-03-31T17:13:08.069Z,9.50
2019-03-31T17:15:36.680Z,8.87
2019-03-31T17:18:05.507Z,8.60
2019-03-31T17:20:34.337Z,7.03
2019-03-31T17:23:03.246Z,7.93
2019-03-31T17:25:32.157Z,8.90
2019-03-31T17:28:02.524Z,8.30
2019-03-31T17:30:32.750Z,7.07
2019-03-31T17:33:01.364Z,7.50
2019-03-31T17:35:29.801Z,7.27
2019-03-31T17:37:58.239Z,6.90
2019-03-31T17:40:28.767Z,8.60
2019-03-31T17:42:57.865Z,7.77
2019-03-31T17:45:26.432Z,7.87
2019-03-31T17:47:55.110Z,8.83
2019-03-31T17:50:23.757Z,8.83
2019-03-31T17:53:03.682Z,7.63
2019-03-31T17:55:30.883Z,8.03
2019-03-31T17:57:59.667Z,8.17
2019-03-31T18:00:28.521Z,9.17
2019-03-31T18:02:56.965Z,8.33
2019-03-31T18:05:25.420Z,8.07
2019-03-31T18:07:53.936Z,8.63
2019-03-31T18:10:23.118Z,9.60
2019-03-31T18:12:51.525Z,10.33
2019-03-31T18:15:20.293Z,11.30
2019-03-31T18:17:49.236Z,9.60
2019-03-31T18:20:18.060Z,9.47
2019-03-31T18:22:48.714Z,10.77
2019-03-31T18:25:17.542Z,12.60
2019-03-31T18:27:46.817Z,12.57
2019-03-31T18:30:17.780Z,13.23
2019-03-31T18:32:46.320Z,14.80
2019-03-31T18:35:17.208Z,14.33
2019-03-31T18:37:45.837Z,15.50
2019-03-31T18:40:16.280Z,15.43
2019-03-31T18:42:44.987Z,15.30
2019-03-31T18:45:13.807Z,16.33
2019-03-31T18:47:42.263Z,15.00
2019-03-31T18:50:11.080Z,17.53
2019-03-31T18:52:41.328Z,16.80
2019-03-31T18:55:40.174Z,20.03
2019-03-31T18:58:28.385Z,17.40
2019-03-31T19:01:18.921Z,19.70
2019-03-31T19:04:07.320Z,21.10
2019-03-31T19:07:07.659Z,20.13
2019-03-31T19:10:04.801Z,20.50
2019-03-31T19:12:53.071Z,20.30
2019-03-31T19:15:37.784Z,22.07
2019-03-31T19:18:26.402Z,19.90
2019-03-31T19:21:11.061Z,19.97
2019-03-31T19:23:59.970Z,18.90
2019-03-31T19:26:50.968Z,19.60
2019-03-31T19:29:48.364Z,17.83
2019-03-31T19:32:29.166Z,18.07
2019-03-31T19:35:18.536Z,17.63
2019-03-31T19:38:13.633Z,18.00
2019-03-31T19:41:04.524Z,17.80
2019-03-31T19:44:05.644Z,18.50
2019-03-31T19:46:44.420Z,16.27
2019-03-31T19:49:38.590Z,16.23
2019-03-31T19:52:25.243Z,17.67
2019-03-31T19:55:15.029Z,15.27
2019-03-31T19:58:03.078Z,14.30
2019-03-31T20:00:54.232Z,14.03
2019-03-31T20:03:42.432Z,15.60
2019-03-31T20:06:17.259Z,16.97
2019-03-31T20:08:57.457Z,16.00
2019-03-31T20:11:34.809Z,14.50
2019-03-31T20:14:24.191Z,14.00
2019-03-31T20:17:18.825Z,14.23
2019-03-31T20:20:08.698Z,13.67
2019-03-31T20:22:52.046Z,14.40
2019-03-31T20:25:43.471Z,13.70
2019-03-31T20:28:27.738Z,12.90
2019-03-31T20:31:03.494Z,11.50
2019-03-31T20:33:51.663Z,12.57
2019-03-31T20:36:39.271Z,14.00
2019-03-31T20:39:34.091Z,11.67
2019-03-31T20:42:10.001Z,12.33
2019-03-31T20:44:38.655Z,12.60
2019-03-31T20:47:07.416Z,11.10
2019-03-31T20:49:35.847Z,10.13
2019-03-31T20:52:04.848Z,11.10
2019-03-31T20:54:33.364Z,13.27
2019-03-31T20:57:02.053Z,12.07
2019-03-31T20:59:30.906Z,14.70
2019-03-31T21:01:59.757Z,15.07
2019-03-31T21:04:28.697Z,15.70
2019-03-31T21:06:57.304Z,16.80
2019-03-31T21:09:25.819Z,15.90
2019-03-31T21:11:54.557Z,16.70
2019-03-31T21:14:23.217Z,15.90
2019-03-31T21:16:52.857Z,17.27
2019-03-31T21:19:22.436Z,17.03
2019-03-31T21:21:51.329Z,14.50
2019-03-31T21:24:20.051Z,15.30
2019-03-31T21:26:48.644Z,13.03
2019-03-31T21:29:17.281Z,13.37
2019-03-31T21:31:46.071Z,12.07
2019-03-31T21:34:14.843Z,12.53
2019-03-31T21:36:43.544Z,11.50
2019-03-31T21:39:11.948Z,12.70
2019-03-31T21:41:40.715Z,14.40
2019-03-31T21:44:09.827Z,13.30
2019-03-31T21:46:38.223Z,14.20
2019-03-31T21:49:07.171Z,13.03
2019-03-31T21:51:37.597Z,13.50
2019-03-31T21:54:06.251Z,14.83
2019-03-31T21:56:34.887Z,13.60
2019-03-31T21:59:03.602Z,13.50
2019-03-31T22:01:34.854Z,13.23
2019-03-31T22:04:03.249Z,12.50
2019-03-31T22:06:31.629Z,11.27
2019-03-31T22:09:00.364Z,13.20
2019-03-31T22:11:28.822Z,12.70
2019-03-31T22:14:10.665Z,12.50
2019-03-31T22:16:39.666Z,11.97
2019-03-31T22:19:08.335Z,12.83
2019-03-31T22:21:36.854Z,11.97
2019-03-31T22:24:05.628Z,12.50
2019-03-31T22:26:34.150Z,12.60
2019-03-31T22:29:02.724Z,12.20
2019-03-31T22:31:33.336Z,11.53
2019-03-31T22:34:02.117Z,12.73
2019-03-31T22:36:30.988Z,12.07
2019-03-31T22:38:59.627Z,12.20
2019-03-31T22:41:28.400Z,11.47
2019-03-31T22:43:57.011Z,10.77
2019-03-31T22:46:25.601Z,11.30
2019-03-31T22:48:55.716Z,12.10
2019-03-31T22:51:24.369Z,12.90
2019-03-31T22:53:52.843Z,12.20
2019-03-31T22:56:22.484Z,12.70
2019-03-31T22:58:51.195Z,11.57
2019-03-31T23:01:19.791Z,12.37
2019-03-31T23:03:48.540Z,10.73
2019-03-31T23:06:18.925Z,10.83
2019-03-31T23:08:48.875Z,10.70
2019-03-31T23:11:17.945Z,10.37
2019-03-31T23:13:46.584Z,9.87
2019-03-31T23:16:15.149Z,10.23
2019-03-31T23:18:43.913Z,8.93
2019-03-31T23:21:12.446Z,10.07
2019-03-31T23:23:40.874Z,10.27
2019-03-31T23:26:11.164Z,9.30
2019-03-31T23:28:48.366Z,10.00
2019-03-31T23:31:17.239Z,9.63
2019-03-31T23:33:45.958Z,9.37
2019-03-31T23:36:16.094Z,10.83
2019-03-31T23:38:45.356Z,10.70
2019-03-31T23:41:14.245Z,10.73
2019-03-31T23:43:42.883Z,9.90
2019-03-31T23:46:11.815Z,9.63
2019-03-31T23:48:40.404Z,10.70
2019-03-31T23:51:08.856Z,10.67
2019-03-31T23:53:37.537Z,10.10
2019-03-31T23:56:06.276Z,10.93
2019-03-31T23:58:34.920Z,9.27
